sensor_id;sensor_type;location;lat;lon;timestamp;P1;durP1;ratioP1;P2;durP2;ratioP2
4694;SDS011;2361;49.540;8.390;2023-12-04T00:01:28;14.13;;;8.20;;
4694;SDS011;2361;49.540;8.390;2023-12-04T00:03:51;14.03;;;8.03;;
4694;SDS011;2361;49.540;8.390;2023-12-04T00:06:14;12.98;;;8.20;;
4694;SDS011;2361;49.540;8.390;2023-12-04T00:08:36;14.15;;;8.43;;
4694;SDS011;2361;49.540;8.390;2023-12-04T00:10:59;13.90;;;8.50;;
4694;SDS011;2361;49.540;8.390;2023-12-04T00:13:21;12.93;;;7.95;;
4694;SDS011;2361;49.540;8.390;2023-12-04T00:15:43;14.00;;;8.23;;
4694;SDS011;2361;49.540;8.390;2023-12-04T00:18:05;13.95;;;8.20;;
4694;SDS011;2361;49.540;8.390;2023-12-04T00:20:27;13.65;;;8.05;;
4694;SDS011;2361;49.540;8.390;2023-12-04T00:22:49;12.50;;;7.70;;
4694;SDS011;2361;49.540;8.390;2023-12-04T00:25:11;13.27;;;8.07;;
4694;SDS011;2361;49.540;8.390;2023-12-04T00:27:33;14.73;;;8.50;;
4694;SDS011;2361;49.540;8.390;2023-12-04T00:29:55;14.05;;;8.48;;
4694;SDS011;2361;49.540;8.390;2023-12-04T00:32:17;14.60;;;8.43;;
4694;SDS011;2361;49.540;8.390;2023-12-04T00:34:39;15.75;;;9.27;;
4694;SDS011;2361;49.540;8.390;2023-12-04T00:37:01;16.23;;;9.60;;
4694;SDS011;2361;49.540;8.390;2023-12-04T00:39:23;16.33;;;9.30;;
4694;SDS011;2361;49.540;8.390;2023-12-04T00:41:45;17.42;;;10.27;;
4694;SDS011;2361;49.540;8.390;2023-12-04T00:44:07;18.42;;;10.60;;
4694;SDS011;2361;49.540;8.390;2023-12-04T00:46:29;17.45;;;9.85;;
4694;SDS011;2361;49.540;8.390;2023-12-04T00:48:51;19.05;;;10.45;;
4694;SDS011;2361;49.540;8.390;2023-12-04T00:51:13;18.20;;;10.35;;
4694;SDS011;2361;49.540;8.390;2023-12-04T00:53:35;17.42;;;9.68;;
4694;SDS011;2361;49.540;8.390;2023-12-04T00:55:57;17.80;;;9.50;;
4694;SDS011;2361;49.540;8.390;2023-12-04T00:58:19;19.00;;;10.57;;
4694;SDS011;2361;49.540;8.390;2023-12-04T01:00:41;18.70;;;10.53;;
4694;SDS011;2361;49.540;8.390;2023-12-04T01:03:03;18.13;;;10.30;;
4694;SDS011;2361;49.540;8.390;2023-12-04T01:05:25;19.50;;;10.60;;
4694;SDS011;2361;49.540;8.390;2023-12-04T01:07:47;19.17;;;10.73;;
4694;SDS011;2361;49.540;8.390;2023-12-04T01:10:09;17.15;;;10.23;;
4694;SDS011;2361;49.540;8.390;2023-12-04T01:12:31;17.98;;;10.35;;
4694;SDS011;2361;49.540;8.390;2023-12-04T01:14:53;17.58;;;9.80;;
4694;SDS011;2361;49.540;8.390;2023-12-04T01:17:15;19.77;;;10.80;;
4694;SDS011;2361;49.540;8.390;2023-12-04T01:19:37;21.17;;;10.60;;
4694;SDS011;2361;49.540;8.390;2023-12-04T01:22:00;18.75;;;10.85;;
4694;SDS011;2361;49.540;8.390;2023-12-04T01:24:22;19.33;;;10.77;;
4694;SDS011;2361;49.540;8.390;2023-12-04T01:26:43;17.67;;;10.65;;
4694;SDS011;2361;49.540;8.390;2023-12-04T01:29:05;18.95;;;10.50;;
4694;SDS011;2361;49.540;8.390;2023-12-04T01:31:27;19.83;;;11.18;;
4694;SDS011;2361;49.540;8.390;2023-12-04T01:33:49;18.90;;;10.77;;
4694;SDS011;2361;49.540;8.390;2023-12-04T01:36:11;19.53;;;10.47;;
4694;SDS011;2361;49.540;8.390;2023-12-04T01:38:34;18.63;;;10.13;;
4694;SDS011;2361;49.540;8.390;2023-12-04T01:40:56;17.88;;;10.68;;
4694;SDS011;2361;49.540;8.390;2023-12-04T01:43:18;17.15;;;9.75;;
4694;SDS011;2361;49.540;8.390;2023-12-04T01:45:40;17.27;;;10.18;;
4694;SDS011;2361;49.540;8.390;2023-12-04T01:48:03;18.10;;;10.60;;
4694;SDS011;2361;49.540;8.390;2023-12-04T01:50:27;19.60;;;10.90;;
4694;SDS011;2361;49.540;8.390;2023-12-04T01:52:49;20.02;;;10.95;;
4694;SDS011;2361;49.540;8.390;2023-12-04T01:55:13;18.50;;;11.07;;
4694;SDS011;2361;49.540;8.390;2023-12-04T01:57:36;21.35;;;11.27;;
4694;SDS011;2361;49.540;8.390;2023-12-04T01:59:58;19.15;;;10.60;;
4694;SDS011;2361;49.540;8.390;2023-12-04T02:02:20;19.77;;;10.70;;
4694;SDS011;2361;49.540;8.390;2023-12-04T02:04:42;18.97;;;11.10;;
4694;SDS011;2361;49.540;8.390;2023-12-04T02:07:05;19.63;;;10.57;;
4694;SDS011;2361;49.540;8.390;2023-12-04T02:09:27;19.67;;;10.70;;
4694;SDS011;2361;49.540;8.390;2023-12-04T02:11:50;19.23;;;10.80;;
4694;SDS011;2361;49.540;8.390;2023-12-04T02:14:18;19.10;;;10.45;;
4694;SDS011;2361;49.540;8.390;2023-12-04T02:16:41;21.23;;;10.67;;
4694;SDS011;2361;49.540;8.390;2023-12-04T02:19:03;21.40;;;10.30;;
4694;SDS011;2361;49.540;8.390;2023-12-04T02:21:26;17.05;;;10.27;;
4694;SDS011;2361;49.540;8.390;2023-12-04T02:23:49;19.92;;;10.32;;
4694;SDS011;2361;49.540;8.390;2023-12-04T02:26:15;17.90;;;9.60;;
4694;SDS011;2361;49.540;8.390;2023-12-04T02:28:40;18.15;;;10.20;;
4694;SDS011;2361;49.540;8.390;2023-12-04T02:31:06;19.73;;;10.40;;
4694;SDS011;2361;49.540;8.390;2023-12-04T02:33:30;18.13;;;10.35;;
4694;SDS011;2361;49.540;8.390;2023-12-04T02:35:55;17.97;;;10.20;;
4694;SDS011;2361;49.540;8.390;2023-12-04T02:38:18;18.38;;;10.82;;
4694;SDS011;2361;49.540;8.390;2023-12-04T02:40:41;18.25;;;10.40;;
4694;SDS011;2361;49.540;8.390;2023-12-04T02:43:03;19.38;;;10.60;;
4694;SDS011;2361;49.540;8.390;2023-12-04T02:45:25;20.35;;;11.35;;
4694;SDS011;2361;49.540;8.390;2023-12-04T02:47:47;20.05;;;10.90;;
4694;SDS011;2361;49.540;8.390;2023-12-04T02:50:09;20.52;;;10.90;;
4694;SDS011;2361;49.540;8.390;2023-12-04T02:52:31;17.83;;;9.80;;
4694;SDS011;2361;49.540;8.390;2023-12-04T02:54:53;17.85;;;10.10;;
4694;SDS011;2361;49.540;8.390;2023-12-04T02:57:15;19.80;;;10.23;;
4694;SDS011;2361;49.540;8.390;2023-12-04T02:59:37;17.95;;;10.80;;
4694;SDS011;2361;49.540;8.390;2023-12-04T03:01:59;20.73;;;10.60;;
4694;SDS011;2361;49.540;8.390;2023-12-04T03:04:21;19.98;;;10.63;;
4694;SDS011;2361;49.540;8.390;2023-12-04T03:06:43;19.25;;;10.95;;
4694;SDS011;2361;49.540;8.390;2023-12-04T03:09:05;18.40;;;10.77;;
4694;SDS011;2361;49.540;8.390;2023-12-04T03:11:29;20.05;;;11.18;;
4694;SDS011;2361;49.540;8.390;2023-12-04T03:13:51;18.15;;;10.50;;
4694;SDS011;2361;49.540;8.390;2023-12-04T03:16:16;19.00;;;10.15;;
4694;SDS011;2361;49.540;8.390;2023-12-04T03:18:39;18.60;;;10.20;;
4694;SDS011;2361;49.540;8.390;2023-12-04T03:21:01;18.52;;;10.35;;
4694;SDS011;2361;49.540;8.390;2023-12-04T03:23:23;17.42;;;10.70;;
4694;SDS011;2361;49.540;8.390;2023-12-04T03:25:48;19.65;;;10.55;;
4694;SDS011;2361;49.540;8.390;2023-12-04T03:28:10;19.60;;;10.33;;
4694;SDS011;2361;49.540;8.390;2023-12-04T03:30:32;17.73;;;10.50;;
4694;SDS011;2361;49.540;8.390;2023-12-04T03:32:54;17.08;;;10.60;;
4694;SDS011;2361;49.540;8.390;2023-12-04T03:35:16;17.13;;;10.23;;
4694;SDS011;2361;49.540;8.390;2023-12-04T03:37:38;17.13;;;10.40;;
4694;SDS011;2361;49.540;8.390;2023-12-04T03:40:00;18.95;;;10.25;;
4694;SDS011;2361;49.540;8.390;2023-12-04T03:42:22;19.80;;;11.10;;
4694;SDS011;2361;49.540;8.390;2023-12-04T03:44:44;18.77;;;10.70;;
4694;SDS011;2361;49.540;8.390;2023-12-04T03:47:06;19.75;;;11.30;;
4694;SDS011;2361;49.540;8.390;2023-12-04T03:49:28;17.38;;;10.45;;
4694;SDS011;2361;49.540;8.390;2023-12-04T03:51:50;17.10;;;10.40;;
4694;SDS011;2361;49.540;8.390;2023-12-04T03:54:12;19.15;;;10.68;;
4694;SDS011;2361;49.540;8.390;2023-12-04T03:56:35;19.38;;;11.00;;
4694;SDS011;2361;49.540;8.390;2023-12-04T03:58:56;17.90;;;10.63;;
4694;SDS011;2361;49.540;8.390;2023-12-04T04:01:18;19.83;;;10.25;;
4694;SDS011;2361;49.540;8.390;2023-12-04T04:03:40;18.95;;;10.23;;
4694;SDS011;2361;49.540;8.390;2023-12-04T04:06:06;16.88;;;9.88;;
4694;SDS011;2361;49.540;8.390;2023-12-04T04:08:29;19.27;;;10.35;;
4694;SDS011;2361;49.540;8.390;2023-12-04T04:10:50;17.67;;;10.35;;
4694;SDS011;2361;49.540;8.390;2023-12-04T04:13:12;17.15;;;9.85;;
4694;SDS011;2361;49.540;8.390;2023-12-04T04:15:35;18.25;;;10.65;;
4694;SDS011;2361;49.540;8.390;2023-12-04T04:17:56;17.13;;;10.57;;
4694;SDS011;2361;49.540;8.390;2023-12-04T04:20:19;18.38;;;10.43;;
4694;SDS011;2361;49.540;8.390;2023-12-04T04:22:41;20.15;;;11.18;;
4694;SDS011;2361;49.540;8.390;2023-12-04T04:25:07;19.52;;;11.13;;
4694;SDS011;2361;49.540;8.390;2023-12-04T04:27:29;17.90;;;10.70;;
4694;SDS011;2361;49.540;8.390;2023-12-04T04:29:51;19.88;;;11.00;;
4694;SDS011;2361;49.540;8.390;2023-12-04T04:32:16;18.50;;;11.05;;
4694;SDS011;2361;49.540;8.390;2023-12-04T04:34:38;17.50;;;10.20;;
4694;SDS011;2361;49.540;8.390;2023-12-04T04:37:00;17.73;;;10.93;;
4694;SDS011;2361;49.540;8.390;2023-12-04T04:39:22;19.50;;;10.35;;
4694;SDS011;2361;49.540;8.390;2023-12-04T04:41:44;18.27;;;10.10;;
4694;SDS011;2361;49.540;8.390;2023-12-04T04:44:06;19.20;;;10.60;;
4694;SDS011;2361;49.540;8.390;2023-12-04T04:46:28;15.98;;;9.77;;
4694;SDS011;2361;49.540;8.390;2023-12-04T04:48:50;17.85;;;10.45;;
4694;SDS011;2361;49.540;8.390;2023-12-04T04:51:12;19.65;;;10.68;;
4694;SDS011;2361;49.540;8.390;2023-12-04T04:53:39;18.92;;;10.95;;
4694;SDS011;2361;49.540;8.390;2023-12-04T04:56:01;18.35;;;10.45;;
4694;SDS011;2361;49.540;8.390;2023-12-04T04:58:23;18.38;;;11.18;;
4694;SDS011;2361;49.540;8.390;2023-12-04T05:00:45;16.58;;;10.00;;
4694;SDS011;2361;49.540;8.390;2023-12-04T05:03:08;21.15;;;10.95;;
4694;SDS011;2361;49.540;8.390;2023-12-04T05:05:30;19.08;;;10.65;;
4694;SDS011;2361;49.540;8.390;2023-12-04T05:07:52;18.67;;;10.77;;
4694;SDS011;2361;49.540;8.390;2023-12-04T05:10:14;18.92;;;10.63;;
4694;SDS011;2361;49.540;8.390;2023-12-04T05:12:36;18.33;;;10.30;;
4694;SDS011;2361;49.540;8.390;2023-12-04T05:14:58;17.50;;;10.23;;
4694;SDS011;2361;49.540;8.390;2023-12-04T05:17:20;16.60;;;9.63;;
4694;SDS011;2361;49.540;8.390;2023-12-04T05:19:42;17.10;;;9.82;;
4694;SDS011;2361;49.540;8.390;2023-12-04T05:22:04;16.80;;;9.98;;
4694;SDS011;2361;49.540;8.390;2023-12-04T05:24:26;18.35;;;10.40;;
4694;SDS011;2361;49.540;8.390;2023-12-04T05:26:48;19.67;;;10.23;;
4694;SDS011;2361;49.540;8.390;2023-12-04T05:29:10;19.27;;;10.73;;
4694;SDS011;2361;49.540;8.390;2023-12-04T05:31:32;18.95;;;10.60;;
4694;SDS011;2361;49.540;8.390;2023-12-04T05:33:54;19.30;;;10.03;;
4694;SDS011;2361;49.540;8.390;2023-12-04T05:36:16;18.40;;;9.80;;
4694;SDS011;2361;49.540;8.390;2023-12-04T05:38:38;18.02;;;9.98;;
4694;SDS011;2361;49.540;8.390;2023-12-04T05:41:00;19.98;;;10.20;;
4694;SDS011;2361;49.540;8.390;2023-12-04T05:43:22;17.88;;;9.90;;
4694;SDS011;2361;49.540;8.390;2023-12-04T05:45:43;15.85;;;9.27;;
4694;SDS011;2361;49.540;8.390;2023-12-04T05:48:06;18.17;;;10.38;;
4694;SDS011;2361;49.540;8.390;2023-12-04T05:50:28;18.25;;;9.77;;
4694;SDS011;2361;49.540;8.390;2023-12-04T05:52:50;19.52;;;10.93;;
4694;SDS011;2361;49.540;8.390;2023-12-04T05:55:12;20.58;;;10.48;;
4694;SDS011;2361;49.540;8.390;2023-12-04T05:57:34;20.48;;;10.70;;
4694;SDS011;2361;49.540;8.390;2023-12-04T05:59:56;18.73;;;10.20;;
4694;SDS011;2361;49.540;8.390;2023-12-04T06:02:18;18.27;;;10.23;;
4694;SDS011;2361;49.540;8.390;2023-12-04T06:04:40;20.40;;;10.35;;
4694;SDS011;2361;49.540;8.390;2023-12-04T06:07:02;17.48;;;9.68;;
4694;SDS011;2361;49.540;8.390;2023-12-04T06:09:24;17.30;;;10.32;;
4694;SDS011;2361;49.540;8.390;2023-12-04T06:11:46;18.13;;;9.40;;
4694;SDS011;2361;49.540;8.390;2023-12-04T06:14:08;16.00;;;9.20;;
4694;SDS011;2361;49.540;8.390;2023-12-04T06:16:31;16.63;;;9.40;;
4694;SDS011;2361;49.540;8.390;2023-12-04T06:18:53;18.60;;;9.35;;
4694;SDS011;2361;49.540;8.390;2023-12-04T06:21:15;16.05;;;9.60;;
4694;SDS011;2361;49.540;8.390;2023-12-04T06:23:37;18.98;;;10.05;;
4694;SDS011;2361;49.540;8.390;2023-12-04T06:26:00;20.88;;;10.60;;
4694;SDS011;2361;49.540;8.390;2023-12-04T06:28:22;18.45;;;10.10;;
4694;SDS011;2361;49.540;8.390;2023-12-04T06:30:44;17.35;;;9.80;;
4694;SDS011;2361;49.540;8.390;2023-12-04T06:33:07;17.17;;;10.40;;
4694;SDS011;2361;49.540;8.390;2023-12-04T06:35:29;18.77;;;10.20;;
4694;SDS011;2361;49.540;8.390;2023-12-04T06:37:53;19.48;;;11.40;;
4694;SDS011;2361;49.540;8.390;2023-12-04T06:40:16;21.48;;;12.75;;
4694;SDS011;2361;49.540;8.390;2023-12-04T06:42:39;20.45;;;11.80;;
4694;SDS011;2361;49.540;8.390;2023-12-04T06:45:01;18.90;;;11.10;;
4694;SDS011;2361;49.540;8.390;2023-12-04T06:47:24;17.23;;;10.25;;
4694;SDS011;2361;49.540;8.390;2023-12-04T06:49:47;19.77;;;11.57;;
4694;SDS011;2361;49.540;8.390;2023-12-04T06:52:09;16.38;;;9.50;;
4694;SDS011;2361;49.540;8.390;2023-12-04T06:54:31;17.20;;;9.60;;
4694;SDS011;2361;49.540;8.390;2023-12-04T06:56:53;17.00;;;10.35;;
4694;SDS011;2361;49.540;8.390;2023-12-04T06:59:15;17.10;;;9.90;;
4694;SDS011;2361;49.540;8.390;2023-12-04T07:01:38;18.83;;;10.40;;
4694;SDS011;2361;49.540;8.390;2023-12-04T07:04:00;19.05;;;10.68;;
4694;SDS011;2361;49.540;8.390;2023-12-04T07:06:22;18.40;;;9.65;;
4694;SDS011;2361;49.540;8.390;2023-12-04T07:08:44;17.25;;;9.88;;
4694;SDS011;2361;49.540;8.390;2023-12-04T07:11:06;18.02;;;10.55;;
4694;SDS011;2361;49.540;8.390;2023-12-04T07:13:29;16.02;;;9.55;;
4694;SDS011;2361;49.540;8.390;2023-12-04T07:15:51;17.58;;;9.90;;
4694;SDS011;2361;49.540;8.390;2023-12-04T07:18:13;17.80;;;10.60;;
4694;SDS011;2361;49.540;8.390;2023-12-04T07:20:35;18.48;;;10.00;;
4694;SDS011;2361;49.540;8.390;2023-12-04T07:22:57;16.63;;;9.77;;
4694;SDS011;2361;49.540;8.390;2023-12-04T07:25:19;16.80;;;10.27;;
4694;SDS011;2361;49.540;8.390;2023-12-04T07:27:41;19.77;;;10.70;;
4694;SDS011;2361;49.540;8.390;2023-12-04T07:30:03;18.20;;;9.85;;
4694;SDS011;2361;49.540;8.390;2023-12-04T07:32:26;22.30;;;12.32;;
4694;SDS011;2361;49.540;8.390;2023-12-04T07:34:48;22.52;;;11.50;;
4694;SDS011;2361;49.540;8.390;2023-12-04T07:37:10;21.90;;;11.70;;
4694;SDS011;2361;49.540;8.390;2023-12-04T07:39:33;17.63;;;10.32;;
4694;SDS011;2361;49.540;8.390;2023-12-04T07:41:55;20.10;;;11.57;;
4694;SDS011;2361;49.540;8.390;2023-12-04T07:44:31;19.95;;;10.48;;
4694;SDS011;2361;49.540;8.390;2023-12-04T07:46:53;20.02;;;11.35;;
4694;SDS011;2361;49.540;8.390;2023-12-04T07:49:15;20.02;;;10.95;;
4694;SDS011;2361;49.540;8.390;2023-12-04T07:51:38;19.70;;;10.70;;
4694;SDS011;2361;49.540;8.390;2023-12-04T07:53:59;18.40;;;10.70;;
4694;SDS011;2361;49.540;8.390;2023-12-04T07:56:24;21.70;;;11.60;;
4694;SDS011;2361;49.540;8.390;2023-12-04T07:58:46;18.92;;;10.93;;
4694;SDS011;2361;49.540;8.390;2023-12-04T08:01:08;19.80;;;11.52;;
4694;SDS011;2361;49.540;8.390;2023-12-04T08:03:30;22.00;;;12.15;;
4694;SDS011;2361;49.540;8.390;2023-12-04T08:05:52;25.13;;;13.32;;
4694;SDS011;2361;49.540;8.390;2023-12-04T08:08:14;28.85;;;14.68;;
4694;SDS011;2361;49.540;8.390;2023-12-04T08:10:36;29.33;;;14.02;;
4694;SDS011;2361;49.540;8.390;2023-12-04T08:12:58;27.70;;;14.20;;
4694;SDS011;2361;49.540;8.390;2023-12-04T08:15:20;28.20;;;14.27;;
4694;SDS011;2361;49.540;8.390;2023-12-04T08:17:42;25.42;;;13.70;;
4694;SDS011;2361;49.540;8.390;2023-12-04T08:20:04;28.30;;;13.93;;
4694;SDS011;2361;49.540;8.390;2023-12-04T08:22:27;25.92;;;13.40;;
4694;SDS011;2361;49.540;8.390;2023-12-04T08:24:49;25.23;;;12.70;;
4694;SDS011;2361;49.540;8.390;2023-12-04T08:27:11;24.90;;;12.63;;
4694;SDS011;2361;49.540;8.390;2023-12-04T08:29:33;24.90;;;12.55;;
4694;SDS011;2361;49.540;8.390;2023-12-04T08:31:55;23.77;;;12.98;;
4694;SDS011;2361;49.540;8.390;2023-12-04T08:34:17;22.10;;;12.40;;
4694;SDS011;2361;49.540;8.390;2023-12-04T08:36:40;24.50;;;12.68;;
4694;SDS011;2361;49.540;8.390;2023-12-04T08:39:07;28.43;;;13.93;;
4694;SDS011;2361;49.540;8.390;2023-12-04T08:41:29;25.08;;;13.38;;
4694;SDS011;2361;49.540;8.390;2023-12-04T08:43:51;23.52;;;11.77;;
4694;SDS011;2361;49.540;8.390;2023-12-04T08:46:13;22.67;;;12.00;;
4694;SDS011;2361;49.540;8.390;2023-12-04T08:48:35;21.90;;;12.98;;
4694;SDS011;2361;49.540;8.390;2023-12-04T08:50:58;37.35;;;22.27;;
4694;SDS011;2361;49.540;8.390;2023-12-04T08:53:20;15.48;;;9.80;;
4694;SDS011;2361;49.540;8.390;2023-12-04T08:55:42;12.10;;;7.57;;
4694;SDS011;2361;49.540;8.390;2023-12-04T08:58:05;11.18;;;7.30;;
4694;SDS011;2361;49.540;8.390;2023-12-04T09:00:27;10.32;;;6.55;;
4694;SDS011;2361;49.540;8.390;2023-12-04T09:02:49;10.00;;;6.30;;
4694;SDS011;2361;49.540;8.390;2023-12-04T09:05:26;10.75;;;6.40;;
4694;SDS011;2361;49.540;8.390;2023-12-04T09:07:49;9.75;;;6.32;;
4694;SDS011;2361;49.540;8.390;2023-12-04T09:10:31;8.35;;;6.00;;
4694;SDS011;2361;49.540;8.390;2023-12-04T09:13:13;9.52;;;5.80;;
4694;SDS011;2361;49.540;8.390;2023-12-04T09:15:37;10.40;;;6.10;;
4694;SDS011;2361;49.540;8.390;2023-12-04T09:17:59;10.95;;;6.00;;
4694;SDS011;2361;49.540;8.390;2023-12-04T09:20:21;9.38;;;6.13;;
4694;SDS011;2361;49.540;8.390;2023-12-04T09:22:44;8.60;;;5.95;;
4694;SDS011;2361;49.540;8.390;2023-12-04T09:25:13;8.30;;;5.80;;
4694;SDS011;2361;49.540;8.390;2023-12-04T09:27:35;7.05;;;5.55;;
4694;SDS011;2361;49.540;8.390;2023-12-04T09:29:57;8.10;;;5.30;;
4694;SDS011;2361;49.540;8.390;2023-12-04T09:32:19;7.53;;;5.10;;
4694;SDS011;2361;49.540;8.390;2023-12-04T09:34:41;6.63;;;5.00;;
4694;SDS011;2361;49.540;8.390;2023-12-04T09:37:03;10.73;;;5.93;;
4694;SDS011;2361;49.540;8.390;2023-12-04T09:39:32;6.15;;;4.70;;
4694;SDS011;2361;49.540;8.390;2023-12-04T09:41:53;6.80;;;4.95;;
4694;SDS011;2361;49.540;8.390;2023-12-04T09:44:16;6.78;;;4.60;;
4694;SDS011;2361;49.540;8.390;2023-12-04T09:46:39;8.13;;;4.82;;
4694;SDS011;2361;49.540;8.390;2023-12-04T09:49:01;9.82;;;5.60;;
4694;SDS011;2361;49.540;8.390;2023-12-04T09:51:26;7.68;;;5.10;;
4694;SDS011;2361;49.540;8.390;2023-12-04T09:53:49;8.85;;;5.47;;
4694;SDS011;2361;49.540;8.390;2023-12-04T09:56:11;9.60;;;5.20;;
4694;SDS011;2361;49.540;8.390;2023-12-04T09:58:35;7.80;;;5.30;;
4694;SDS011;2361;49.540;8.390;2023-12-04T10:01:01;6.90;;;4.80;;
4694;SDS011;2361;49.540;8.390;2023-12-04T10:03:25;7.82;;;5.07;;
4694;SDS011;2361;49.540;8.390;2023-12-04T10:05:47;9.52;;;5.05;;
4694;SDS011;2361;49.540;8.390;2023-12-04T10:08:10;7.78;;;5.15;;
4694;SDS011;2361;49.540;8.390;2023-12-04T10:10:32;7.05;;;4.57;;
4694;SDS011;2361;49.540;8.390;2023-12-04T10:12:55;6.50;;;4.70;;
4694;SDS011;2361;49.540;8.390;2023-12-04T10:15:17;6.78;;;4.68;;
4694;SDS011;2361;49.540;8.390;2023-12-04T10:17:40;6.33;;;4.47;;
4694;SDS011;2361;49.540;8.390;2023-12-04T10:20:08;6.93;;;4.68;;
4694;SDS011;2361;49.540;8.390;2023-12-04T10:22:39;7.53;;;4.40;;
4694;SDS011;2361;49.540;8.390;2023-12-04T10:25:16;7.70;;;5.22;;
4694;SDS011;2361;49.540;8.390;2023-12-04T10:27:39;7.00;;;4.50;;
4694;SDS011;2361;49.540;8.390;2023-12-04T10:30:01;6.40;;;3.80;;
4694;SDS011;2361;49.540;8.390;2023-12-04T10:32:23;5.60;;;4.07;;
4694;SDS011;2361;49.540;8.390;2023-12-04T10:34:45;6.28;;;4.15;;
4694;SDS011;2361;49.540;8.390;2023-12-04T10:37:07;6.60;;;4.40;;
4694;SDS011;2361;49.540;8.390;2023-12-04T10:39:31;6.18;;;3.83;;
4694;SDS011;2361;49.540;8.390;2023-12-04T10:42:10;5.40;;;3.80;;
4694;SDS011;2361;49.540;8.390;2023-12-04T10:44:32;6.88;;;4.30;;
4694;SDS011;2361;49.540;8.390;2023-12-04T10:46:55;5.40;;;4.20;;
4694;SDS011;2361;49.540;8.390;2023-12-04T10:49:27;6.45;;;4.50;;
4694;SDS011;2361;49.540;8.390;2023-12-04T10:51:50;3.40;;;3.10;;
4694;SDS011;2361;49.540;8.390;2023-12-04T10:54:12;5.75;;;3.97;;
4694;SDS011;2361;49.540;8.390;2023-12-04T10:56:35;7.57;;;4.50;;
4694;SDS011;2361;49.540;8.390;2023-12-04T10:59:01;8.05;;;5.07;;
4694;SDS011;2361;49.540;8.390;2023-12-04T11:01:23;7.13;;;4.93;;
4694;SDS011;2361;49.540;8.390;2023-12-04T11:03:48;7.25;;;5.00;;
4694;SDS011;2361;49.540;8.390;2023-12-04T11:06:11;8.55;;;4.85;;
4694;SDS011;2361;49.540;8.390;2023-12-04T11:08:36;7.72;;;5.28;;
4694;SDS011;2361;49.540;8.390;2023-12-04T11:11:03;7.53;;;5.03;;
4694;SDS011;2361;49.540;8.390;2023-12-04T11:13:42;7.68;;;5.10;;
4694;SDS011;2361;49.540;8.390;2023-12-04T11:19:20;7.47;;;5.20;;
4694;SDS011;2361;49.540;8.390;2023-12-04T11:21:45;10.07;;;5.43;;
4694;SDS011;2361;49.540;8.390;2023-12-04T11:24:08;10.52;;;5.20;;
4694;SDS011;2361;49.540;8.390;2023-12-04T11:26:31;8.82;;;5.38;;
4694;SDS011;2361;49.540;8.390;2023-12-04T11:28:54;14.02;;;7.88;;
4694;SDS011;2361;49.540;8.390;2023-12-04T11:31:17;14.07;;;8.20;;
4694;SDS011;2361;49.540;8.390;2023-12-04T11:33:39;13.15;;;6.90;;
4694;SDS011;2361;49.540;8.390;2023-12-04T11:38:34;7.53;;;5.53;;
4694;SDS011;2361;49.540;8.390;2023-12-04T11:40:58;9.70;;;5.20;;
4694;SDS011;2361;49.540;8.390;2023-12-04T11:43:29;6.72;;;4.93;;
4694;SDS011;2361;49.540;8.390;2023-12-04T11:45:53;7.63;;;5.20;;
4694;SDS011;2361;49.540;8.390;2023-12-04T11:48:30;7.38;;;5.10;;
4694;SDS011;2361;49.540;8.390;2023-12-04T11:50:52;7.50;;;5.30;;
4694;SDS011;2361;49.540;8.390;2023-12-04T11:53:18;6.82;;;5.10;;
4694;SDS011;2361;49.540;8.390;2023-12-04T11:55:40;7.60;;;5.13;;
4694;SDS011;2361;49.540;8.390;2023-12-04T11:58:04;9.32;;;5.65;;
4694;SDS011;2361;49.540;8.390;2023-12-04T12:00:31;10.32;;;6.03;;
4694;SDS011;2361;49.540;8.390;2023-12-04T12:05:38;9.10;;;6.00;;
4694;SDS011;2361;49.540;8.390;2023-12-04T12:08:03;11.20;;;6.15;;
4694;SDS011;2361;49.540;8.390;2023-12-04T12:10:26;8.80;;;5.90;;
4694;SDS011;2361;49.540;8.390;2023-12-04T12:12:49;9.57;;;6.35;;
4694;SDS011;2361;49.540;8.390;2023-12-04T12:15:11;8.52;;;5.90;;
4694;SDS011;2361;49.540;8.390;2023-12-04T12:17:33;10.40;;;6.70;;
4694;SDS011;2361;49.540;8.390;2023-12-04T12:19:55;9.65;;;6.00;;
4694;SDS011;2361;49.540;8.390;2023-12-04T12:22:18;10.73;;;6.50;;
4694;SDS011;2361;49.540;8.390;2023-12-04T12:24:40;11.70;;;6.53;;
4694;SDS011;2361;49.540;8.390;2023-12-04T12:27:02;10.27;;;6.20;;
4694;SDS011;2361;49.540;8.390;2023-12-04T12:29:27;9.10;;;5.90;;
4694;SDS011;2361;49.540;8.390;2023-12-04T12:31:49;9.95;;;6.20;;
4694;SDS011;2361;49.540;8.390;2023-12-04T12:34:12;10.43;;;6.57;;
4694;SDS011;2361;49.540;8.390;2023-12-04T12:36:34;9.43;;;6.55;;
4694;SDS011;2361;49.540;8.390;2023-12-04T12:38:56;10.10;;;6.70;;
4694;SDS011;2361;49.540;8.390;2023-12-04T12:41:18;10.02;;;6.40;;
4694;SDS011;2361;49.540;8.390;2023-12-04T12:43:41;9.20;;;6.20;;
4694;SDS011;2361;49.540;8.390;2023-12-04T12:46:04;11.20;;;6.20;;
4694;SDS011;2361;49.540;8.390;2023-12-04T12:48:27;9.73;;;6.32;;
4694;SDS011;2361;49.540;8.390;2023-12-04T12:50:50;11.00;;;6.90;;
4694;SDS011;2361;49.540;8.390;2023-12-04T12:53:12;11.00;;;6.88;;
4694;SDS011;2361;49.540;8.390;2023-12-04T12:55:37;11.88;;;7.18;;
4694;SDS011;2361;49.540;8.390;2023-12-04T12:58:06;12.70;;;7.47;;
4694;SDS011;2361;49.540;8.390;2023-12-04T13:00:28;13.48;;;8.02;;
4694;SDS011;2361;49.540;8.390;2023-12-04T13:02:53;12.07;;;7.50;;
4694;SDS011;2361;49.540;8.390;2023-12-04T13:05:15;12.55;;;7.60;;
4694;SDS011;2361;49.540;8.390;2023-12-04T13:07:39;14.52;;;8.25;;
4694;SDS011;2361;49.540;8.390;2023-12-04T13:10:03;14.55;;;8.60;;
4694;SDS011;2361;49.540;8.390;2023-12-04T13:12:26;12.68;;;8.38;;
4694;SDS011;2361;49.540;8.390;2023-12-04T13:14:48;11.77;;;7.40;;
4694;SDS011;2361;49.540;8.390;2023-12-04T13:17:10;10.82;;;7.30;;
4694;SDS011;2361;49.540;8.390;2023-12-04T13:19:32;11.85;;;7.45;;
4694;SDS011;2361;49.540;8.390;2023-12-04T13:21:56;10.95;;;6.13;;
4694;SDS011;2361;49.540;8.390;2023-12-04T13:24:18;9.95;;;6.55;;
4694;SDS011;2361;49.540;8.390;2023-12-04T13:26:40;9.27;;;6.60;;
4694;SDS011;2361;49.540;8.390;2023-12-04T13:29:02;10.30;;;6.70;;
4694;SDS011;2361;49.540;8.390;2023-12-04T13:31:24;10.05;;;6.28;;
4694;SDS011;2361;49.540;8.390;2023-12-04T13:33:47;11.20;;;6.90;;
4694;SDS011;2361;49.540;8.390;2023-12-04T13:36:09;10.73;;;6.70;;
4694;SDS011;2361;49.540;8.390;2023-12-04T13:38:32;11.50;;;6.90;;
4694;SDS011;2361;49.540;8.390;2023-12-04T13:40:59;11.55;;;6.90;;
4694;SDS011;2361;49.540;8.390;2023-12-04T13:43:29;10.80;;;6.70;;
4694;SDS011;2361;49.540;8.390;2023-12-04T13:46:09;13.18;;;7.70;;
4694;SDS011;2361;49.540;8.390;2023-12-04T13:48:31;12.18;;;7.20;;
4694;SDS011;2361;49.540;8.390;2023-12-04T13:50:53;13.50;;;7.80;;
4694;SDS011;2361;49.540;8.390;2023-12-04T13:53:16;14.73;;;7.60;;
4694;SDS011;2361;49.540;8.390;2023-12-04T13:55:42;11.48;;;7.68;;
4694;SDS011;2361;49.540;8.390;2023-12-04T13:58:16;12.05;;;7.85;;
4694;SDS011;2361;49.540;8.390;2023-12-04T14:00:58;11.95;;;7.63;;
4694;SDS011;2361;49.540;8.390;2023-12-04T14:03:21;14.77;;;8.27;;
4694;SDS011;2361;49.540;8.390;2023-12-04T14:05:44;12.73;;;7.97;;
4694;SDS011;2361;49.540;8.390;2023-12-04T14:08:06;14.40;;;7.90;;
4694;SDS011;2361;49.540;8.390;2023-12-04T14:10:29;12.18;;;7.18;;
4694;SDS011;2361;49.540;8.390;2023-12-04T14:12:51;12.57;;;7.25;;
4694;SDS011;2361;49.540;8.390;2023-12-04T14:15:13;14.00;;;7.72;;
4694;SDS011;2361;49.540;8.390;2023-12-04T14:17:35;11.65;;;7.65;;
4694;SDS011;2361;49.540;8.390;2023-12-04T14:20:00;12.55;;;7.88;;
4694;SDS011;2361;49.540;8.390;2023-12-04T14:22:26;14.48;;;7.97;;
4694;SDS011;2361;49.540;8.390;2023-12-04T14:24:47;13.65;;;8.30;;
4694;SDS011;2361;49.540;8.390;2023-12-04T14:27:10;15.13;;;8.40;;
4694;SDS011;2361;49.540;8.390;2023-12-04T14:29:31;13.30;;;7.95;;
4694;SDS011;2361;49.540;8.390;2023-12-04T14:31:53;15.27;;;8.27;;
4694;SDS011;2361;49.540;8.390;2023-12-04T14:34:16;13.57;;;8.13;;
4694;SDS011;2361;49.540;8.390;2023-12-04T14:36:38;13.40;;;8.10;;
4694;SDS011;2361;49.540;8.390;2023-12-04T14:39:00;13.18;;;7.80;;
4694;SDS011;2361;49.540;8.390;2023-12-04T14:41:22;13.10;;;7.93;;